Time;durP1;ratioP1;P1;durP2;ratioP2;P2;SDS_P1;SDS_P2;PMS_P1;PMS_P2;Temp;Humidity;BMP_temperature;BMP_pressure;BME280_temperature;BME280_humidity;BME280_pressure;Samples;Min_cycle;Max_cycle;Signal;HPM_P1;HPM_P2
2022/03/17 00:00:31;;;;;;;3.10;1.10;;;14.80;77.90;;;;;;5063203;28;20543;-59
2022/03/17 00:03:02;;;;;;;2.03;1.30;;;14.80;73.80;;;;;;5060662;28;20479;-59
2022/03/17 00:05:33;;;;;;;2.87;0.90;;;14.80;73.50;;;;;;5065206;28;20555;-60
2022/03/17 00:08:06;;;;;;;2.43;1.23;;;14.90;74.50;;;;;;5062286;28;20448;-60
2022/03/17 00:10:38;;;;;;;2.27;1.00;;;14.80;79.30;;;;;;5065256;28;20527;-59
2022/03/17 00:13:10;;;;;;;3.63;1.00;;;14.80;73.90;;;;;;5061487;28;20482;-59
2022/03/17 00:15:41;;;;;;;2.13;0.90;;;14.70;76.60;;;;;;5059199;28;21135;-59
2022/03/17 00:18:13;;;;;;;2.17;1.20;;;14.60;77.60;;;;;;5052029;28;20495;-60
2022/03/17 00:20:44;;;;;;;2.10;1.10;;;14.60;75.70;;;;;;5064556;28;20550;-61
2022/03/17 00:23:17;;;;;;;3.33;1.10;;;14.50;74.50;;;;;;5064913;28;20447;-60
2022/03/17 00:25:48;;;;;;;4.20;0.87;;;14.50;75.80;;;;;;5061972;28;20588;-59
2022/03/17 00:28:19;;;;;;;1.73;0.87;;;14.50;73.50;;;;;;5069234;28;20513;-60
2022/03/17 00:30:50;;;;;;;1.47;1.10;;;14.60;77.20;;;;;;5070655;28;20456;-59
2022/03/17 00:33:21;;;;;;;2.03;1.20;;;14.50;75.70;;;;;;5065413;28;20474;-59
2022/03/17 00:35:52;;;;;;;2.50;1.30;;;14.40;74.20;;;;;;5066478;28;20464;-61
2022/03/17 00:38:25;;;;;;;2.53;0.87;;;14.40;74.80;;;;;;5060483;28;20495;-59
2022/03/17 00:40:56;;;;;;;2.70;1.50;;;14.30;72.70;;;;;;5069368;28;20546;-60
2022/03/17 00:43:27;;;;;;;2.17;1.27;;;14.40;72.30;;;;;;5064439;28;20460;-59
2022/03/17 00:45:58;;;;;;;3.50;1.63;;;14.40;74.10;;;;;;5063095;28;20491;-59
2022/03/17 00:48:29;;;;;;;1.33;0.97;;;14.40;73.20;;;;;;5068115;28;20574;-61
2022/03/17 00:51:00;;;;;;;1.87;1.20;;;14.50;73.40;;;;;;5053821;28;20587;-61
2022/03/17 00:53:33;;;;;;;3.33;1.20;;;14.50;74.10;;;;;;5062863;28;20476;-60
2022/03/17 00:56:04;;;;;;;2.00;1.67;;;14.40;71.80;;;;;;5061157;28;20455;-60
2022/03/17 00:58:35;;;;;;;1.97;1.53;;;14.30;71.90;;;;;;5068437;28;20452;-59
2022/03/17 01:01:06;;;;;;;1.97;0.90;;;14.30;73.90;;;;;;5063485;28;20492;-59
2022/03/17 01:03:38;;;;;;;3.00;1.20;;;14.30;73.70;;;;;;5061440;28;20463;-63
2022/03/17 01:06:10;;;;;;;3.23;1.73;;;14.20;74.70;;;;;;5064183;28;20549;-63
2022/03/17 01:08:43;;;;;;;1.97;1.03;;;14.10;73.40;;;;;;5061575;28;20520;-63
2022/03/17 01:11:14;;;;;;;2.33;1.40;;;14.00;74.90;;;;;;5050191;28;20575;-64
2022/03/17 01:13:45;;;;;;;5.60;1.50;;;13.90;77.70;;;;;;5045983;28;20537;-63
2022/03/17 01:16:17;;;;;;;1.77;0.90;;;13.80;75.70;;;;;;5055227;28;20548;-64
2022/03/17 01:18:48;;;;;;;4.37;1.17;;;13.70;75.70;;;;;;5053852;28;21047;-63
2022/03/17 01:21:19;;;;;;;2.83;1.53;;;13.70;74.30;;;;;;5064608;28;20490;-63
2022/03/17 01:23:52;;;;;;;2.90;1.43;;;13.70;74.30;;;;;;5053277;28;20564;-64
2022/03/17 01:26:23;;;;;;;2.30;1.60;;;13.70;73.80;;;;;;5061253;28;20615;-61
2022/03/17 01:28:56;;;;;;;2.33;1.30;;;13.60;74.60;;;;;;5062869;28;20982;-64
2022/03/17 01:31:27;;;;;;;1.30;1.10;;;13.50;75.70;;;;;;5046955;28;20448;-62
2022/03/17 01:33:58;;;;;;;5.90;1.30;;;13.40;74.50;;;;;;5054702;28;20457;-61
2022/03/17 01:36:30;;;;;;;2.20;1.10;;;13.40;75.70;;;;;;5050846;28;21588;-64
2022/03/17 01:39:02;;;;;;;4.00;1.10;;;13.40;76.80;;;;;;5065183;28;20472;-63
2022/03/17 01:41:33;;;;;;;3.53;1.23;;;13.20;79.20;;;;;;5064454;28;20468;-61
2022/03/17 01:44:05;;;;;;;1.70;1.17;;;13.10;81.20;;;;;;5060394;28;20463;-61
2022/03/17 01:49:21;;;;;;;1.20;0.93;;;12.90;86.20;;;;;;5064127;28;20500;-61
2022/03/17 01:51:52;;;;;;;1.37;1.10;;;12.80;87.60;;;;;;5058757;28;20472;-61
2022/03/17 01:54:25;;;;;;;2.47;1.00;;;12.70;86.60;;;;;;5063062;28;20544;-60
2022/03/17 01:57:08;;;;;;;3.90;1.47;;;12.60;90.10;;;;;;5063547;28;20468;-61
2022/03/17 01:59:40;;;;;;;3.20;1.63;;;12.50;90.00;;;;;;5065675;28;20455;-61
2022/03/17 02:02:14;;;;;;;3.17;1.43;;;12.40;90.50;;;;;;5064812;28;20634;-60
2022/03/17 02:04:46;;;;;;;2.73;1.53;;;12.40;91.30;;;;;;5062734;28;20475;-61
2022/03/17 02:07:20;;;;;;;2.90;1.40;;;12.30;92.80;;;;;;5061289;28;20491;-62
2022/03/17 02:09:53;;;;;;;3.23;1.40;;;12.20;93.40;;;;;;5065624;28;20508;-62
2022/03/17 02:15:13;;;;;;;1.63;1.47;;;11.90;96.10;;;;;;5064692;28;20459;-62
2022/03/17 02:17:44;;;;;;;5.60;1.13;;;11.80;96.00;;;;;;5064415;28;20482;-61
2022/03/17 02:20:17;;;;;;;2.87;1.67;;;11.70;97.20;;;;;;5067069;28;20448;-59
2022/03/17 02:22:49;;;;;;;5.90;1.80;;;11.70;98.30;;;;;;5066049;28;20562;-62
2022/03/17 02:25:35;;;;;;;3.90;1.60;;;11.60;96.30;;;;;;5066346;28;20485;-62
2022/03/17 02:28:08;;;;;;;2.10;1.50;;;11.50;99.90;;;;;;5063124;28;20507;-61
2022/03/17 02:30:41;;;;;;;5.40;2.20;;;11.40;99.90;;;;;;5066646;28;20532;-61
2022/03/17 02:33:15;;;;;;;2.57;1.50;;;11.30;99.90;;;;;;5063108;28;20551;-61
2022/03/17 02:35:47;;;;;;;4.90;1.83;;;11.20;99.90;;;;;;5062765;28;20751;-61
2022/03/17 02:38:19;;;;;;;2.07;1.60;;;11.20;99.90;;;;;;5065798;28;20544;-61
2022/03/17 02:40:53;;;;;;;2.37;1.50;;;11.10;99.90;;;;;;5067966;28;20451;-61
2022/03/17 02:43:24;;;;;;;2.33;1.90;;;11.00;99.90;;;;;;5067592;28;20507;-61
2022/03/17 02:45:55;;;;;;;4.30;2.20;;;10.90;99.90;;;;;;5070158;28;20471;-61
2022/03/17 02:48:26;;;;;;;3.13;2.00;;;10.90;99.90;;;;;;5066778;28;20456;-62
2022/03/17 02:50:57;;;;;;;2.87;2.30;;;10.80;99.90;;;;;;5065914;28;20508;-61
2022/03/17 02:53:28;;;;;;;5.40;2.73;;;10.70;99.90;;;;;;5064055;28;20524;-61
2022/03/17 02:56:00;;;;;;;3.60;1.90;;;10.60;99.90;;;;;;5062239;28;20460;-61
2022/03/17 02:58:32;;;;;;;5.73;3.60;;;10.60;99.90;;;;;;5062251;28;20559;-62
2022/03/17 03:01:03;;;;;;;5.40;3.10;;;10.50;99.90;;;;;;5059720;28;20566;-63
2022/03/17 03:03:34;;;;;;;4.53;4.07;;;10.40;99.90;;;;;;5061523;28;21278;-61
2022/03/17 03:06:06;;;;;;;7.03;4.77;;;10.30;99.90;;;;;;5065168;28;20488;-62
2022/03/17 03:08:37;;;;;;;18.90;12.30;;;10.30;99.90;;;;;;5063270;28;20597;-62
2022/03/17 03:11:13;;;;;;;34.20;21.23;;;10.20;99.90;;;;;;5062323;28;20811;-61
2022/03/17 03:13:44;;;;;;;41.17;24.23;;;10.20;99.90;;;;;;5073657;28;20466;-62
2022/03/17 03:16:16;;;;;;;21.57;15.23;;;10.20;99.90;;;;;;5063907;28;21793;-63
2022/03/17 03:18:47;;;;;;;16.00;10.50;;;10.10;99.90;;;;;;5064906;28;20529;-61
2022/03/17 03:21:19;;;;;;;12.33;7.87;;;10.00;99.90;;;;;;5061916;28;20456;-62
2022/03/17 03:23:53;;;;;;;8.63;5.80;;;9.90;99.90;;;;;;5058399;28;20467;-61
2022/03/17 03:26:27;;;;;;;9.17;6.00;;;9.80;99.90;;;;;;5060816;28;20232;-62
2022/03/17 03:28:58;;;;;;;9.27;5.20;;;9.80;99.90;;;;;;5060730;28;20499;-61
2022/03/17 03:31:29;;;;;;;7.20;4.80;;;9.70;99.90;;;;;;5061840;28;20204;-61
2022/03/17 03:34:00;;;;;;;5.87;4.37;;;9.70;99.90;;;;;;5062016;28;20543;-61
2022/03/17 03:39:18;;;;;;;4.57;3.15;;;9.70;99.90;;;;;;5061637;28;20802;-62
2022/03/17 03:41:50;;;;;;;6.33;3.73;;;9.70;99.90;;;;;;5061983;28;20635;-61
2022/03/17 03:44:21;;;;;;;4.63;3.00;;;9.70;99.90;;;;;;5058642;28;20460;-61
2022/03/17 03:46:52;;;;;;;5.22;3.47;;;9.60;99.90;;;;;;5061195;28;20230;-61
2022/03/17 03:49:23;;;;;;;5.40;3.60;;;9.60;99.90;;;;;;5058922;28;20221;-62
2022/03/17 03:51:54;;;;;;;6.85;4.10;;;9.60;99.90;;;;;;5043340;28;20551;-63
2022/03/17 03:54:28;;;;;;;6.23;3.97;;;9.50;99.90;;;;;;5051084;28;20294;-63
2022/03/17 03:57:01;;;;;;;10.05;4.30;;;9.40;99.90;;;;;;5056776;28;20467;-63
2022/03/17 03:59:32;;;;;;;7.80;4.57;;;9.40;99.90;;;;;;5058319;28;20204;-62
2022/03/17 04:02:05;;;;;;;4.70;3.67;;;9.30;99.90;;;;;;5059713;28;20452;-63
2022/03/17 04:04:38;;;;;;;5.22;4.07;;;9.30;99.90;;;;;;5062942;28;20209;-63
2022/03/17 04:07:10;;;;;;;5.17;4.03;;;9.20;99.90;;;;;;5061638;28;20251;-63
2022/03/17 04:09:42;;;;;;;4.50;4.10;;;9.10;99.90;;;;;;5066311;28;20452;-63
2022/03/17 04:12:15;;;;;;;6.47;4.03;;;9.10;99.90;;;;;;5063633;28;20213;-62
2022/03/17 04:14:46;;;;;;;7.03;3.72;;;9.10;99.90;;;;;;5064470;28;20209;-63
2022/03/17 04:17:17;;;;;;;5.57;4.07;;;9.00;99.90;;;;;;5054340;28;20304;-62
2022/03/17 04:19:48;;;;;;;7.13;3.70;;;9.00;99.90;;;;;;5065862;28;20205;-62
2022/03/17 04:22:19;;;;;;;8.32;4.63;;;9.00;99.90;;;;;;5061381;28;20236;-62
2022/03/17 04:24:50;;;;;;;6.82;4.95;;;8.90;99.90;;;;;;5060751;28;20236;-62
2022/03/17 04:27:22;;;;;;;6.53;5.03;;;8.80;99.90;;;;;;5062470;28;20217;-62
2022/03/17 04:29:54;;;;;;;7.28;5.47;;;8.80;99.90;;;;;;5069222;28;20212;-62
2022/03/17 04:32:25;;;;;;;5.35;4.85;;;8.70;99.90;;;;;;5061508;28;20198;-62
2022/03/17 04:34:55;;;;;;;6.10;4.72;;;8.70;99.90;;;;;;5063321;28;20592;-62
2022/03/17 04:37:26;;;;;;;7.72;5.07;;;8.60;99.90;;;;;;5060348;28;20247;-62
2022/03/17 04:39:58;;;;;;;6.35;4.40;;;8.60;99.90;;;;;;5063594;28;20206;-61
2022/03/17 04:42:30;;;;;;;7.45;5.25;;;8.60;99.90;;;;;;5059575;28;20280;-61
2022/03/17 04:45:02;;;;;;;6.93;5.55;;;8.60;99.90;;;;;;5060028;28;20194;-64
2022/03/17 04:47:33;;;;;;;5.45;4.88;;;8.50;99.90;;;;;;5062928;28;21765;-63
2022/03/17 04:50:05;;;;;;;5.65;4.63;;;8.40;99.90;;;;;;5061712;28;20212;-63
2022/03/17 04:55:24;;;;;;;6.38;5.10;;;8.40;99.90;;;;;;5061548;28;20228;-63
2022/03/17 04:57:56;;;;;;;7.43;5.28;;;8.30;99.90;;;;;;5066579;28;20209;-63
2022/03/17 05:00:27;;;;;;;8.40;4.93;;;8.30;99.90;;;;;;5065342;28;20221;-63
2022/03/17 05:02:58;;;;;;;9.88;4.88;;;8.30;99.90;;;;;;5061759;28;20190;-62
2022/03/17 05:05:30;;;;;;;5.97;5.15;;;8.20;99.90;;;;;;5063068;28;20228;-62
2022/03/17 05:08:00;;;;;;;8.80;5.75;;;8.20;99.90;;;;;;5064635;28;20260;-62
2022/03/17 05:10:31;;;;;;;8.32;6.50;;;8.10;99.90;;;;;;5062026;28;20551;-63
2022/03/17 05:13:07;;;;;;;6.10;5.50;;;8.10;99.90;;;;;;5061770;28;20210;-63
2022/03/17 05:15:39;;;;;;;7.03;5.65;;;8.00;99.90;;;;;;5063781;28;20203;-63
2022/03/17 05:18:11;;;;;;;8.60;5.97;;;8.00;99.90;;;;;;5070571;28;20230;-62
2022/03/17 05:20:43;;;;;;;6.70;5.15;;;7.90;99.90;;;;;;5064862;28;20611;-62
2022/03/17 05:23:16;;;;;;;6.25;5.40;;;8.00;99.90;;;;;;5070740;28;20280;-62
2022/03/17 05:25:48;;;;;;;7.70;4.80;;;8.00;99.90;;;;;;5069862;28;20213;-62
2022/03/17 05:28:21;;;;;;;6.68;5.13;;;7.90;99.90;;;;;;5067400;28;20242;-63
2022/03/17 05:30:52;;;;;;;6.63;5.45;;;7.80;99.90;;;;;;5064843;28;20244;-62
2022/03/17 05:33:23;;;;;;;5.35;4.85;;;7.80;99.90;;;;;;5068049;28;20306;-63
2022/03/17 05:35:55;;;;;;;6.40;4.88;;;7.90;99.90;;;;;;5069519;28;20322;-63
2022/03/17 05:38:26;;;;;;;7.45;5.00;;;7.70;99.90;;;;;;5062651;28;20216;-62
2022/03/17 05:40:57;;;;;;;6.20;5.57;;;7.60;99.90;;;;;;5066810;28;20190;-62
2022/03/17 05:43:30;;;;;;;6.93;5.50;;;7.60;99.90;;;;;;5066755;28;20626;-62
2022/03/17 05:46:00;;;;;;;7.22;5.53;;;7.60;99.90;;;;;;5056617;28;21021;-62
2022/03/17 05:48:31;;;;;;;10.15;6.53;;;7.60;99.90;;;;;;5064172;28;20253;-62
2022/03/17 05:51:02;;;;;;;6.57;5.97;;;7.60;99.90;;;;;;5065522;28;20543;-62
2022/03/17 05:53:33;;;;;;;5.60;5.10;;;7.60;99.90;;;;;;5069472;28;20308;-62
2022/03/17 05:56:04;;;;;;;8.23;6.18;;;7.60;99.90;;;;;;5072112;28;20217;-62
2022/03/17 05:58:36;;;;;;;6.47;5.82;;;7.50;99.90;;;;;;5066850;28;20530;-62
2022/03/17 06:01:07;;;;;;;7.95;6.28;;;7.50;99.90;;;;;;5066286;28;20890;-63
2022/03/17 06:03:38;;;;;;;9.32;5.68;;;7.50;99.90;;;;;;5069482;28;20272;-62
2022/03/17 06:06:09;;;;;;;7.20;5.65;;;7.50;99.90;;;;;;5068311;28;20216;-63
2022/03/17 06:08:39;;;;;;;8.55;6.18;;;7.40;99.90;;;;;;5067444;28;20229;-63
2022/03/17 06:11:10;;;;;;;7.55;5.80;;;7.40;99.90;;;;;;5066026;28;20284;-62
2022/03/17 06:13:44;;;;;;;10.07;6.70;;;7.40;99.90;;;;;;5067771;28;20213;-62
2022/03/17 06:16:15;;;;;;;8.07;5.55;;;7.30;99.90;;;;;;5068334;28;20196;-63
2022/03/17 06:18:46;;;;;;;7.45;6.40;;;7.20;99.90;;;;;;5068185;28;20233;-62
2022/03/17 06:21:17;;;;;;;7.15;5.40;;;7.20;99.90;;;;;;5068482;28;20193;-62
2022/03/17 06:23:48;;;;;;;8.23;6.55;;;7.20;99.90;;;;;;5067258;28;20213;-62
2022/03/17 06:26:19;;;;;;;8.43;5.43;;;7.20;99.90;;;;;;5066152;28;20236;-62
2022/03/17 06:28:52;;;;;;;10.38;6.35;;;7.20;99.90;;;;;;5073277;28;20227;-62
2022/03/17 06:31:23;;;;;;;7.80;5.50;;;7.20;99.90;;;;;;5073381;28;20196;-62
2022/03/17 06:33:54;;;;;;;6.50;5.78;;;7.10;99.90;;;;;;5066827;28;20244;-62
2022/03/17 06:36:26;;;;;;;8.00;6.15;;;7.00;99.90;;;;;;5072511;28;20202;-62
2022/03/17 06:38:56;;;;;;;7.28;6.07;;;7.00;99.90;;;;;;5060121;28;20210;-62
2022/03/17 06:41:27;;;;;;;6.57;5.90;;;7.00;99.90;;;;;;5067479;28;20203;-62
2022/03/17 06:44:00;;;;;;;8.50;6.50;;;6.80;99.90;;;;;;5067087;28;20201;-62
2022/03/17 06:46:31;;;;;;;9.38;6.82;;;6.80;99.90;;;;;;5062661;28;20193;-62
2022/03/17 06:49:02;;;;;;;9.98;6.70;;;6.70;99.90;;;;;;5077099;28;20240;-61
2022/03/17 06:51:33;;;;;;;6.80;6.00;;;6.70;99.90;;;;;;5063103;28;21716;-61
2022/03/17 06:54:04;;;;;;;8.13;6.53;;;6.70;99.90;;;;;;5066718;28;20547;-61
2022/03/17 06:56:35;;;;;;;7.30;6.60;;;6.70;99.90;;;;;;5066125;28;20194;-61
2022/03/17 06:59:08;;;;;;;7.28;6.57;;;6.60;99.90;;;;;;5061303;28;20216;-61
2022/03/17 07:01:39;;;;;;;7.68;5.82;;;6.60;99.90;;;;;;5065192;28;20205;-61
2022/03/17 07:04:10;;;;;;;6.45;5.85;;;6.50;99.90;;;;;;5065419;28;20228;-61
2022/03/17 07:06:41;;;;;;;8.98;7.10;;;6.50;99.90;;;;;;5064011;28;20201;-61
2022/03/17 07:09:12;;;;;;;8.70;7.78;;;6.40;99.90;;;;;;5065216;28;20225;-60
2022/03/17 07:11:43;;;;;;;11.02;7.75;;;6.40;99.90;;;;;;5063527;28;20202;-61
2022/03/17 07:14:15;;;;;;;11.05;6.70;;;6.40;99.90;;;;;;5068324;28;20540;-62
2022/03/17 07:16:46;;;;;;;9.88;6.50;;;6.30;99.90;;;;;;5064685;28;20201;-61
2022/03/17 07:19:17;;;;;;;7.05;6.30;;;6.30;99.90;;;;;;5063147;28;20733;-61
2022/03/17 07:21:48;;;;;;;7.63;6.07;;;6.30;99.90;;;;;;5065529;28;20829;-61
2022/03/17 07:24:19;;;;;;;9.10;6.38;;;6.30;99.90;;;;;;5064693;28;20297;-61
2022/03/17 07:26:50;;;;;;;10.18;6.45;;;6.30;99.90;;;;;;5064662;28;20213;-61
2022/03/17 07:29:22;;;;;;;9.77;6.18;;;6.30;99.90;;;;;;5068856;28;20695;-61
2022/03/17 07:31:56;;;;;;;8.80;6.18;;;6.30;99.90;;;;;;5062855;28;20190;-61
2022/03/17 07:34:27;;;;;;;6.70;6.07;;;6.40;99.90;;;;;;5061896;28;20197;-61
2022/03/17 07:36:58;;;;;;;8.23;5.85;;;6.30;99.90;;;;;;5060747;28;20201;-61
2022/03/17 07:39:29;;;;;;;8.40;5.80;;;6.30;99.90;;;;;;5065768;28;20215;-61
2022/03/17 07:41:59;;;;;;;11.60;6.18;;;6.40;99.90;;;;;;5062051;28;20224;-61
2022/03/17 07:44:35;;;;;;;8.52;5.25;;;6.40;99.90;;;;;;5066109;28;20196;-61
2022/03/17 07:47:08;;;;;;;5.53;5.00;;;6.40;99.90;;;;;;5062121;28;20209;-61
2022/03/17 07:49:42;;;;;;;10.10;5.35;;;6.40;99.90;;;;;;5062584;28;20309;-61
2022/03/17 07:52:13;;;;;;;6.45;5.32;;;6.30;99.90;;;;;;5062198;28;20280;-61
2022/03/17 07:54:45;;;;;;;7.93;5.95;;;6.30;99.90;;;;;;5065489;28;20392;-60
2022/03/17 07:57:16;;;;;;;8.77;6.22;;;6.20;99.90;;;;;;5068624;28;20201;-61
2022/03/17 07:59:54;;;;;;;8.70;5.60;;;6.20;99.90;;;;;;5061765;28;20204;-60
2022/03/17 08:02:25;;;;;;;6.20;5.18;;;6.30;99.90;;;;;;5065809;28;20209;-61
2022/03/17 08:04:55;;;;;;;6.90;5.30;;;6.30;99.90;;;;;;5067697;28;20665;-61
2022/03/17 08:07:27;;;;;;;6.70;6.00;;;6.20;99.90;;;;;;5065632;28;20208;-61
2022/03/17 08:09:58;;;;;;;7.20;5.60;;;6.20;99.90;;;;;;5066080;28;20231;-61
2022/03/17 08:12:31;;;;;;;6.35;5.35;;;6.20;99.90;;;;;;5066434;28;20236;-61
2022/03/17 08:15:05;;;;;;;8.20;5.97;;;6.20;99.90;;;;;;5063252;28;20518;-61
2022/03/17 08:17:36;;;;;;;6.43;5.30;;;6.20;99.90;;;;;;5063421;28;20236;-60
2022/03/17 08:20:08;;;;;;;7.32;5.60;;;6.10;99.90;;;;;;5064042;28;20287;-61
2022/03/17 08:22:40;;;;;;;9.35;5.13;;;6.00;99.90;;;;;;5063495;28;20247;-60
2022/03/17 08:25:14;;;;;;;7.70;5.28;;;6.10;99.90;;;;;;5069579;28;20215;-61
2022/03/17 08:27:45;;;;;;;6.97;6.00;;;6.00;99.90;;;;;;5064612;28;20206;-61
2022/03/17 08:30:17;;;;;;;7.85;6.15;;;6.00;99.90;;;;;;5063965;28;20267;-61
2022/03/17 08:32:48;;;;;;;9.48;6.60;;;6.00;99.90;;;;;;5052693;28;20201;-61
2022/03/17 08:35:19;;;;;;;5.95;5.03;;;6.00;99.90;;;;;;5061477;28;20209;-61
2022/03/17 08:37:50;;;;;;;7.35;5.75;;;5.90;99.90;;;;;;5055113;28;20207;-61
2022/03/17 08:40:22;;;;;;;10.43;5.78;;;5.90;99.90;;;;;;5055313;28;20303;-62
2022/03/17 08:42:53;;;;;;;7.45;6.03;;;5.90;99.90;;;;;;5069191;28;20218;-61
2022/03/17 08:51:01;;;;;;;7.40;5.13;;;6.00;99.90;;;;;;5068309;28;20241;-61
2022/03/17 08:53:32;;;;;;;6.30;5.70;;;5.90;99.90;;;;;;5069149;28;20209;-61
2022/03/17 08:56:02;;;;;;;7.85;5.20;;;5.90;99.90;;;;;;5069211;28;20200;-61
2022/03/17 08:58:35;;;;;;;7.53;6.22;;;5.90;99.90;;;;;;5066370;28;20300;-61
2022/03/17 09:01:08;;;;;;;6.82;6.15;;;5.90;99.90;;;;;;5069302;28;20224;-60
2022/03/17 09:03:39;;;;;;;9.45;5.95;;;5.90;99.90;;;;;;5068358;28;20194;-61
2022/03/17 09:06:11;;;;;;;8.27;5.18;;;5.90;99.90;;;;;;5068451;28;20217;-61
2022/03/17 09:08:43;;;;;;;7.10;6.40;;;5.80;99.90;;;;;;5067154;28;20289;-61
2022/03/17 09:11:15;;;;;;;8.70;5.72;;;5.80;99.90;;;;;;5069241;28;20235;-61
2022/03/17 09:13:46;;;;;;;7.93;5.03;;;5.90;99.90;;;;;;5067492;28;20337;-60
2022/03/17 09:16:20;;;;;;;7.93;5.32;;;5.90;99.90;;;;;;5069050;28;20185;-61
2022/03/17 09:18:51;;;;;;;8.23;4.85;;;5.90;99.90;;;;;;5069751;28;20315;-60
2022/03/17 09:21:22;;;;;;;6.50;5.70;;;5.90;99.90;;;;;;5066988;28;20205;-60
2022/03/17 09:23:53;;;;;;;5.50;4.10;;;5.90;99.90;;;;;;5065677;28;20258;-60
2022/03/17 09:26:24;;;;;;;9.05;5.78;;;5.90;99.90;;;;;;5068011;28;20211;-60
2022/03/17 09:28:55;;;;;;;6.88;5.22;;;5.90;99.90;;;;;;5065427;28;20214;-60
2022/03/17 09:31:28;;;;;;;7.22;4.38;;;5.90;99.90;;;;;;5070561;28;20220;-61
2022/03/17 09:33:59;;;;;;;6.63;4.88;;;5.80;99.90;;;;;;5064687;28;20228;-60
2022/03/17 09:36:33;;;;;;;6.63;4.55;;;5.90;99.90;;;;;;5069387;28;20202;-60
2022/03/17 09:41:52;;;;;;;6.20;5.60;;;5.80;99.90;;;;;;5063416;28;20222;-60
2022/03/17 09:44:23;;;;;;;6.03;5.05;;;5.80;99.90;;;;;;5062877;28;20212;-60
2022/03/17 09:46:59;;;;;;;8.63;4.40;;;5.70;99.90;;;;;;5078398;28;20225;-61
2022/03/17 09:49:33;;;;;;;6.60;5.05;;;5.60;99.90;;;;;;5064421;28;20224;-60
2022/03/17 09:52:12;;;;;;;7.57;5.78;;;5.60;99.90;;;;;;5050941;28;20212;-60
2022/03/17 09:54:43;;;;;;;7.05;4.75;;;5.70;99.90;;;;;;5068433;28;20217;-60
2022/03/17 09:57:16;;;;;;;5.97;5.20;;;5.60;99.90;;;;;;5068219;28;20216;-60
2022/03/17 09:59:48;;;;;;;8.43;4.90;;;5.60;99.90;;;;;;5064826;28;20297;-61
2022/03/17 10:02:21;;;;;;;5.93;4.95;;;5.60;99.90;;;;;;5065538;28;20552;-61
2022/03/17 10:04:53;;;;;;;5.45;4.53;;;5.60;99.90;;;;;;5069865;28;20189;-60
2022/03/17 10:07:24;;;;;;;4.57;4.15;;;5.50;99.90;;;;;;5067013;28;20200;-60
2022/03/17 10:09:54;;;;;;;4.97;4.45;;;5.50;99.90;;;;;;5066406;28;20677;-61
2022/03/17 10:12:30;;;;;;;5.88;4.72;;;5.50;99.90;;;;;;5065111;28;20217;-61
2022/03/17 10:15:01;;;;;;;5.65;3.95;;;5.50;99.90;;;;;;5071800;28;20204;-61
2022/03/17 10:17:36;;;;;;;7.60;4.75;;;5.50;99.90;;;;;;5070682;28;20233;-61
2022/03/17 10:20:18;;;;;;;5.80;5.30;;;5.50;99.90;;;;;;5067943;28;20213;-61
2022/03/17 10:22:51;;;;;;;6.20;4.30;;;5.50;99.90;;;;;;5068101;28;20521;-61
2022/03/17 10:25:23;;;;;;;5.65;5.05;;;5.50;99.90;;;;;;5066933;28;20212;-60
2022/03/17 10:27:55;;;;;;;5.97;4.25;;;5.50;99.90;;;;;;5064722;28;20308;-60
2022/03/17 10:30:33;;;;;;;5.35;4.85;;;5.50;99.90;;;;;;5066219;28;20232;-61
2022/03/17 10:33:09;;;;;;;7.63;5.78;;;5.50;99.90;;;;;;5071319;28;20266;-60
2022/03/17 10:35:45;;;;;;;5.57;5.07;;;5.40;99.90;;;;;;5065228;28;20721;-61
2022/03/17 10:38:17;;;;;;;5.65;4.00;;;5.40;99.90;;;;;;5063757;28;20190;-60
2022/03/17 10:41:03;;;;;;;4.68;4.25;;;5.40;99.90;;;;;;5063262;28;20219;-60
2022/03/17 10:43:34;;;;;;;5.97;4.18;;;5.40;99.90;;;;;;5055488;28;20198;-60
2022/03/17 10:46:09;;;;;;;6.78;4.07;;;5.40;99.90;;;;;;5063901;28;20206;-60
2022/03/17 10:48:57;;;;;;;6.63;4.30;;;5.50;99.90;;;;;;5063680;28;20201;-60
2022/03/17 10:51:36;;;;;;;4.78;4.40;;;5.50;99.90;;;;;;5061866;28;20248;-61
2022/03/17 10:54:10;;;;;;;7.90;4.60;;;5.50;99.90;;;;;;5067831;28;20198;-61
2022/03/17 10:56:41;;;;;;;4.68;4.20;;;5.50;99.90;;;;;;5066933;28;20187;-60
2022/03/17 10:59:12;;;;;;;7.10;4.35;;;5.40;99.90;;;;;;5065219;28;20193;-60
2022/03/17 11:01:50;;;;;;;6.80;5.85;;;5.30;99.90;;;;;;5063251;28;20220;-61
2022/03/17 11:04:23;;;;;;;7.15;4.85;;;5.40;99.90;;;;;;5064443;28;20277;-61
2022/03/17 11:06:54;;;;;;;6.10;4.38;;;5.40;99.90;;;;;;5066427;28;20224;-60
2022/03/17 11:09:25;;;;;;;5.85;5.25;;;5.30;99.90;;;;;;5065052;28;20559;-60
2022/03/17 11:11:56;;;;;;;6.35;4.95;;;5.30;99.90;;;;;;5061910;28;20892;-60
2022/03/17 11:14:27;;;;;;;8.18;4.93;;;5.30;99.90;;;;;;5061467;28;20202;-60
2022/03/17 11:17:00;;;;;;;7.20;5.00;;;5.30;99.90;;;;;;5064016;28;20222;-61
2022/03/17 11:19:33;;;;;;;7.05;5.50;;;5.30;99.90;;;;;;5066478;28;20209;-61
2022/03/17 11:22:09;;;;;;;7.50;4.53;;;5.30;99.90;;;;;;5064928;28;20253;-61
2022/03/17 11:24:40;;;;;;;6.35;5.00;;;5.30;99.90;;;;;;5067981;28;20212;-61
2022/03/17 11:27:13;;;;;;;7.03;5.03;;;5.10;99.90;;;;;;5062778;28;20213;-60
2022/03/17 11:29:47;;;;;;;5.82;4.22;;;5.10;99.90;;;;;;5064998;28;20209;-61
2022/03/17 11:32:31;;;;;;;7.00;4.70;;;5.10;99.90;;;;;;5065245;28;20236;-60
2022/03/17 11:35:12;;;;;;;7.93;4.40;;;5.10;99.90;;;;;;5062108;28;20208;-60
2022/03/17 11:37:43;;;;;;;5.60;4.65;;;5.00;99.90;;;;;;5057694;28;20278;-60
2022/03/17 11:40:20;;;;;;;7.85;6.30;;;5.00;99.90;;;;;;5066395;28;20869;-60
2022/03/17 11:43:05;;;;;;;6.80;3.88;;;4.90;99.90;;;;;;5061100;28;20213;-60
2022/03/17 11:45:37;;;;;;;7.05;4.85;;;5.00;99.90;;;;;;5073455;28;20276;-61
2022/03/17 11:48:13;;;;;;;5.43;4.10;;;5.00;99.90;;;;;;5063469;28;20220;-60
2022/03/17 11:50:51;;;;;;;5.15;4.63;;;4.90;99.90;;;;;;5066939;28;20225;-60
2022/03/17 11:53:37;;;;;;;6.20;4.03;;;4.80;99.90;;;;;;5053218;28;20293;-60
2022/03/17 11:56:09;;;;;;;5.75;4.05;;;4.80;99.90;;;;;;5062583;28;20201;-60
2022/03/17 11:58:42;;;;;;;6.57;4.88;;;4.90;99.90;;;;;;5062948;28;20205;-60
2022/03/17 12:01:15;;;;;;;5.90;4.65;;;4.80;99.90;;;;;;5063417;28;20201;-60
2022/03/17 12:03:47;;;;;;;7.50;4.57;;;4.70;99.90;;;;;;5066077;28;20206;-60
2022/03/17 12:06:21;;;;;;;7.40;6.60;;;4.80;99.90;;;;;;5064396;28;20225;-60
2022/03/17 12:08:55;;;;;;;9.38;6.10;;;4.80;99.90;;;;;;5067356;28;20215;-61
2022/03/17 12:11:28;;;;;;;9.73;5.30;;;4.80;99.90;;;;;;5062797;28;20217;-60
2022/03/17 12:14:22;;;;;;;8.73;5.32;;;4.80;99.90;;;;;;5060444;28;20550;-60
2022/03/17 12:16:55;;;;;;;8.40;5.13;;;4.70;99.90;;;;;;5065340;28;20319;-60
2022/03/17 12:19:36;;;;;;;9.10;5.15;;;4.70;99.90;;;;;;5065933;28;20297;-61
2022/03/17 12:22:19;;;;;;;5.25;4.78;;;4.70;99.90;;;;;;5059609;28;20248;-61
2022/03/17 12:24:55;;;;;;;7.40;4.60;;;4.70;99.90;;;;;;5069884;28;20212;-60
2022/03/17 12:27:30;;;;;;;6.35;4.22;;;4.70;99.90;;;;;;5068093;28;20209;-60
2022/03/17 12:30:03;;;;;;;7.68;4.90;;;4.70;99.90;;;;;;5072879;28;20200;-61
2022/03/17 12:32:36;;;;;;;8.95;5.55;;;4.80;99.90;;;;;;5071506;28;20229;-61
2022/03/17 12:35:08;;;;;;;6.32;5.70;;;4.80;99.90;;;;;;5066205;28;20249;-60
2022/03/17 12:37:42;;;;;;;6.35;4.85;;;4.80;99.90;;;;;;5065599;28;20216;-60
2022/03/17 12:40:16;;;;;;;5.20;4.70;;;4.70;99.90;;;;;;5059428;28;20196;-61
2022/03/17 12:42:52;;;;;;;5.10;4.50;;;4.70;99.90;;;;;;5064879;28;20198;-60
2022/03/17 12:45:25;;;;;;;6.80;5.00;;;4.70;99.90;;;;;;5063208;28;20269;-60
2022/03/17 12:47:58;;;;;;;6.90;4.72;;;4.60;99.90;;;;;;5064762;28;20554;-60
2022/03/17 12:50:32;;;;;;;5.90;4.82;;;4.60;99.90;;;;;;5075790;28;20279;-60
2022/03/17 12:53:04;;;;;;;7.10;3.90;;;4.70;99.90;;;;;;5070846;28;20568;-60
2022/03/17 12:55:36;;;;;;;5.78;4.90;;;4.60;99.90;;;;;;5066586;28;20208;-61
2022/03/17 12:58:16;;;;;;;6.57;4.90;;;4.70;99.90;;;;;;5071481;28;20193;-60
2022/03/17 13:00:48;;;;;;;4.95;4.45;;;4.70;99.90;;;;;;5068004;28;20216;-61
2022/03/17 13:03:21;;;;;;;7.72;5.60;;;4.80;99.90;;;;;;5065006;28;20801;-60
2022/03/17 13:08:46;;;;;;;5.53;4.97;;;4.90;99.90;;;;;;5065817;28;20290;-60
2022/03/17 13:14:23;;;;;;;5.78;4.32;;;4.90;99.90;;;;;;5023033;28;20198;-60
2022/03/17 13:17:02;;;;;;;5.65;5.15;;;5.00;99.90;;;;;;5022113;28;20391;-61
2022/03/17 13:19:43;;;;;;;4.82;4.32;;;4.90;99.90;;;;;;5030027;28;20194;-60
2022/03/17 13:22:14;;;;;;;8.07;4.60;;;5.00;99.90;;;;;;5023765;28;20207;-60
2022/03/17 13:25:00;;;;;;;5.53;4.55;;;5.00;99.90;;;;;;5025193;28;20214;-60
2022/03/17 13:27:31;;;;;;;6.35;4.18;;;5.10;99.90;;;;;;5023705;28;20275;-59
2022/03/17 13:30:03;;;;;;;6.90;4.30;;;5.10;99.90;;;;;;5024530;28;20237;-59
2022/03/17 13:32:33;;;;;;;5.18;4.47;;;5.10;99.90;;;;;;5021725;28;20227;-60
2022/03/17 13:35:06;;;;;;;6.13;4.38;;;5.10;99.90;;;;;;5021257;28;20213;-60
2022/03/17 13:37:42;;;;;;;7.13;5.13;;;5.00;99.90;;;;;;5022116;28;20557;-60
2022/03/17 13:40:19;;;;;;;5.05;4.28;;;5.00;99.90;;;;;;5021026;28;20330;-60
2022/03/17 13:43:06;;;;;;;4.88;4.47;;;4.90;99.90;;;;;;5020620;28;20373;-60
2022/03/17 13:45:39;;;;;;;4.60;4.20;;;5.00;99.90;;;;;;5043999;28;20202;-60